createdAt,value
2023-04-15T18:44:37.472Z,13.77
2023-04-15T18:47:04.641Z,13.83
2023-04-15T18:49:33.533Z,13.82
2023-04-15T18:52:00.705Z,14.13
2023-04-15T18:54:27.874Z,14.04
2023-04-15T18:56:55.097Z,13.94
2023-04-15T18:59:29.697Z,14.16
2023-04-15T19:01:59.015Z,14.31
2023-04-15T19:04:26.310Z,14.33
2023-04-15T19:06:53.448Z,14.43
2023-04-15T19:09:20.790Z,14.47
2023-04-15T19:11:48.109Z,14.39
2023-04-15T19:14:15.429Z,14.40
2023-04-15T19:16:42.607Z,14.54
2023-04-15T19:19:09.738Z,14.35
2023-04-15T19:21:37.010Z,14.46
2023-04-15T19:24:04.266Z,14.40
2023-04-15T19:26:31.599Z,14.48
2023-04-15T19:28:59.199Z,14.39
2023-04-15T19:31:26.606Z,14.34
2023-04-15T19:33:53.748Z,14.35
2023-04-15T19:36:21.076Z,14.09
2023-04-15T19:38:48.286Z,14.06
2023-04-15T19:41:15.973Z,14.12
2023-04-15T19:43:43.116Z,14.14
2023-04-15T19:46:10.280Z,14.14
2023-04-15T19:48:37.419Z,14.06
2023-04-15T19:51:05.271Z,14.05
2023-04-15T19:53:32.728Z,13.96
2023-04-15T19:55:59.877Z,14.02
2023-04-15T19:58:27.639Z,13.98
2023-04-15T20:00:54.774Z,13.93
2023-04-15T20:03:22.382Z,13.72
2023-04-15T20:05:49.773Z,13.71
2023-04-15T20:08:17.378Z,13.73
2023-04-15T20:10:44.467Z,13.69
2023-04-15T20:13:12.315Z,13.70
2023-04-15T20:15:39.455Z,13.73
2023-04-15T20:18:07.210Z,13.67
2023-04-15T20:20:35.072Z,13.43
2023-04-15T20:23:02.386Z,13.25
2023-04-15T20:25:29.497Z,13.36
2023-04-15T20:28:00.397Z,13.23
2023-04-15T20:30:29.430Z,13.25
2023-04-15T20:32:56.732Z,12.91
2023-04-15T20:35:25.356Z,13.00
2023-04-15T20:37:52.446Z,13.04
2023-04-15T20:40:19.591Z,12.93
2023-04-15T20:42:46.691Z,12.95
2023-04-15T20:45:13.923Z,12.57
2023-04-15T20:47:41.863Z,12.56
2023-04-15T20:50:09.871Z,12.50
2023-04-15T20:52:37.084Z,12.66
2023-04-15T20:55:04.496Z,12.81
2023-04-15T20:57:31.847Z,12.80
2023-04-15T20:59:59.037Z,12.88
2023-04-15T21:02:26.421Z,12.89
2023-04-15T21:04:53.653Z,12.83
2023-04-15T21:07:20.796Z,12.48
2023-04-15T21:09:48.064Z,12.49
2023-04-15T21:12:15.147Z,12.51
2023-04-15T21:14:42.324Z,12.42
2023-04-15T21:17:11.132Z,12.31
2023-04-15T21:19:38.939Z,12.34
2023-04-15T21:22:06.166Z,12.36
2023-04-15T21:24:33.446Z,12.27
2023-04-15T21:27:02.169Z,12.29
2023-04-15T21:29:29.634Z,12.21
2023-04-15T21:31:56.823Z,12.17
2023-04-15T21:34:24.111Z,11.93
2023-04-15T21:36:51.228Z,11.87
2023-04-15T21:39:18.532Z,11.98
2023-04-15T21:41:45.685Z,12.00
2023-04-15T21:44:14.869Z,11.96
2023-04-15T21:46:46.028Z,12.02
2023-04-15T21:49:14.139Z,12.16
2023-04-15T21:51:41.243Z,12.14
2023-04-15T21:54:08.439Z,12.12
2023-04-15T21:56:35.771Z,11.98
2023-04-15T21:59:02.934Z,12.07
2023-04-15T22:01:30.193Z,12.12
2023-04-15T22:03:57.632Z,12.10
2023-04-15T22:06:24.809Z,12.21
2023-04-15T22:09:11.335Z,12.16
2023-04-15T22:11:39.031Z,12.18
2023-04-15T22:14:06.360Z,12.14
2023-04-15T22:16:33.673Z,12.04
2023-04-15T22:19:00.869Z,12.12
2023-04-15T22:21:28.086Z,12.22
2023-04-15T22:24:33.507Z,12.21
2023-04-15T22:26:42.478Z,12.39
2023-04-15T22:29:10.036Z,12.07
2023-04-15T22:31:37.223Z,12.08
2023-04-15T22:34:04.459Z,12.19
2023-04-15T22:36:32.080Z,12.15
2023-04-15T22:38:59.131Z,12.28
2023-04-15T22:41:26.631Z,12.32
2023-04-15T22:43:53.755Z,11.84
2023-04-15T22:46:21.134Z,12.00
2023-04-15T22:48:48.274Z,11.97
2023-04-15T22:51:22.385Z,11.58
2023-04-15T22:53:50.935Z,11.97
2023-04-15T22:56:22.266Z,11.61
2023-04-15T22:58:50.699Z,11.51
2023-04-15T23:01:18.371Z,11.36
2023-04-15T23:03:56.973Z,11.34
2023-04-15T23:06:27.458Z,11.45
2023-04-15T23:08:54.817Z,11.17
2023-04-15T23:11:22.301Z,11.30
2023-04-15T23:13:50.880Z,11.38
2023-04-15T23:16:18.038Z,11.48
2023-04-15T23:18:45.151Z,11.34
2023-04-15T23:21:12.227Z,11.49
2023-04-15T23:23:39.313Z,11.36
2023-04-15T23:26:06.639Z,11.54
2023-04-15T23:28:33.708Z,11.36
2023-04-15T23:31:00.953Z,11.32
2023-04-15T23:33:28.162Z,11.38
2023-04-15T23:35:55.447Z,11.28
2023-04-15T23:38:22.691Z,11.39
2023-04-15T23:40:51.412Z,11.47
2023-04-15T23:43:18.511Z,11.57
2023-04-15T23:45:45.623Z,11.73
2023-04-15T23:48:12.759Z,11.87
2023-04-15T23:50:40.006Z,11.66
2023-04-15T23:53:07.132Z,11.52
2023-04-15T23:55:34.222Z,11.44
2023-04-15T23:58:01.298Z,11.02
